Hauptseite
METAR-TAF:

METAR-TAF

Flughäfen :

Fliegerhorst Ingolstadt/Manching

Ingolstadt, Deutschland

Breite: 48-43N, Länge: 011-32E, Höhe: 367 m

Beobachtung

Neuester Wetterbericht von vor 43 Minuten, um 15:20 UTC
Wind 4 kt aus Ost/Südost
Temperatur 24°C
Luftfeuchtigkeit 54%
Luftdruck 1024 hPa
Sichtweite 10 km oder mehr
Leicht bewölkt in der Höhe von 4200 ft
Aufgelockert bewölkt in der Höhe von 28000 ft

METAR: ETSI 231520Z 12004KT 9999 FEW042 SCT280 24/14 Q1024 BLU+

Zeit: 18:03 (16:03 UTC)

Prognose

Neuester Wetterbericht von vor 5 Stunden und 48 Minuten, um 10:15 UTC
Gültige Prognose vom 23 um 11 UTC bis 23 um 20 UTC
Wind 8 kt aus Ost/Nordost
Sichtweite: 1120 m
Aufgelockert bewölkt in der Höhe von 5000 ft

TAF: ETSI 231015Z 2311/2320 07008KT 9999 NSW SCT050 CANCEL 1120

Wetterbeobachtungen und Prognosen von mehr als 4000 Flughäfen (METAR und TAF Bericht).

Die verfügbaren Stationen werden durch gelbe und rote Markierungen auf der Karte dargestellt.

Führen Sie die Maus auf sie, um den Namen der Station zu sehen.

Darauf klicken, um die Beobachtung von Wetterbeobachtungen und Prognosen zu sehen.

Um die Karte zu ändern : klicken Sie auf den grünen Tasten mit einem schwarzen Kreuz Zum Vergrößern, auf den grünen Button mit einem Gedankenstrich zu verkleinern, oder auf die grünen Pfeile für benachbarte Karten.


METAR-TAF: